sensor_id;sensor_type;location;lat;lon;timestamp;pressure;altitude;pressure_sealevel;temperature;humidity
68508;BME280;55510;49.560;19.090;2023-04-27T12:59:53;96772.88;;;10.94;40.87
68508;BME280;55510;49.560;19.090;2023-04-27T13:02:55;96769.16;;;10.95;41.31
68508;BME280;55510;49.560;19.090;2023-04-27T13:05:55;96775.31;;;10.95;43.17
68508;BME280;55510;49.560;19.090;2023-04-27T13:08:57;96768.59;;;10.93;41.37
68508;BME280;55510;49.560;19.090;2023-04-27T13:11:58;96769.44;;;10.81;39.41
68508;BME280;55510;49.560;19.090;2023-04-27T13:14:59;96775.38;;;10.59;39.42
68508;BME280;55510;49.560;19.090;2023-04-27T13:18:00;96771.56;;;10.55;39.90
68508;BME280;55510;49.560;19.090;2023-04-27T13:21:07;96774.97;;;10.92;40.55
68508;BME280;55510;49.560;19.090;2023-04-27T13:24:08;96765.75;;;10.58;40.73
68508;BME280;55510;49.560;19.090;2023-04-27T13:27:08;96765.09;;;10.27;39.71
68508;BME280;55510;49.560;19.090;2023-04-27T13:30:09;96764.28;;;10.63;41.51
68508;BME280;55510;49.560;19.090;2023-04-27T13:33:11;96754.81;;;10.96;41.09
68508;BME280;55510;49.560;19.090;2023-04-27T13:36:15;96750.63;;;11.00;39.21
68508;BME280;55510;49.560;19.090;2023-04-27T13:39:16;96756.09;;;11.22;40.87
68508;BME280;55510;49.560;19.090;2023-04-27T13:42:17;96758.00;;;11.39;39.28
68508;BME280;55510;49.560;19.090;2023-04-27T13:45:18;96758.88;;;11.44;43.41
68508;BME280;55510;49.560;19.090;2023-04-27T13:48:18;96759.81;;;11.67;41.18
68508;BME280;55510;49.560;19.090;2023-04-27T13:51:19;96762.75;;;12.17;41.29
68508;BME280;55510;49.560;19.090;2023-04-27T13:54:20;96769.03;;;12.45;39.22
68508;BME280;55510;49.560;19.090;2023-04-27T13:57:21;96764.34;;;12.97;40.02
68508;BME280;55510;49.560;19.090;2023-04-27T14:00:21;96766.56;;;13.05;37.57
68508;BME280;55510;49.560;19.090;2023-04-27T14:03:22;96769.06;;;12.89;39.34
68508;BME280;55510;49.560;19.090;2023-04-27T14:06:23;96773.84;;;12.09;37.50
68508;BME280;55510;49.560;19.090;2023-04-27T14:09:24;96774.63;;;11.75;38.47
68508;BME280;55510;49.560;19.090;2023-04-27T14:12:26;96775.31;;;11.24;40.28
68508;BME280;55510;49.560;19.090;2023-04-27T14:15:28;96775.44;;;10.88;41.51
68508;BME280;55510;49.560;19.090;2023-04-27T14:18:28;96783.22;;;10.66;41.30
68508;BME280;55510;49.560;19.090;2023-04-27T14:21:29;96791.00;;;10.44;42.06
68508;BME280;55510;49.560;19.090;2023-04-27T14:24:31;96786.25;;;10.22;42.43
68508;BME280;55510;49.560;19.090;2023-04-27T14:27:32;96783.94;;;10.02;41.55
68508;BME280;55510;49.560;19.090;2023-04-27T14:30:33;96784.38;;;9.87;43.35
68508;BME280;55510;49.560;19.090;2023-04-27T14:33:34;96785.97;;;9.76;43.32
68508;BME280;55510;49.560;19.090;2023-04-27T14:36:35;96787.94;;;9.81;45.70
68508;BME280;55510;49.560;19.090;2023-04-27T14:39:36;96784.72;;;9.79;44.04
68508;BME280;55510;49.560;19.090;2023-04-27T14:42:37;96789.22;;;9.90;44.67
68508;BME280;55510;49.560;19.090;2023-04-27T14:45:37;96792.69;;;10.02;44.68
68508;BME280;55510;49.560;19.090;2023-04-27T14:48:38;96789.81;;;9.92;41.89
68508;BME280;55510;49.560;19.090;2023-04-27T14:51:39;96792.13;;;10.00;42.65
68508;BME280;55510;49.560;19.090;2023-04-27T14:54:39;96790.66;;;10.28;42.12
68508;BME280;55510;49.560;19.090;2023-04-27T14:57:41;96790.88;;;10.63;42.69
68508;BME280;55510;49.560;19.090;2023-04-27T15:00:41;96789.91;;;10.81;42.91
68508;BME280;55510;49.560;19.090;2023-04-27T15:03:42;96800.59;;;10.57;42.51
68508;BME280;55510;49.560;19.090;2023-04-27T15:06:43;96803.16;;;10.52;42.82
68508;BME280;55510;49.560;19.090;2023-04-27T15:09:44;96806.50;;;10.23;42.92
68508;BME280;55510;49.560;19.090;2023-04-27T15:12:45;96807.28;;;10.12;44.03
68508;BME280;55510;49.560;19.090;2023-04-27T15:15:46;96808.78;;;9.96;43.48
68508;BME280;55510;49.560;19.090;2023-04-27T15:18:47;96813.94;;;9.48;41.27
68508;BME280;55510;49.560;19.090;2023-04-27T15:21:47;96813.47;;;9.39;43.79
68508;BME280;55510;49.560;19.090;2023-04-27T15:24:48;96815.81;;;9.48;45.18
68508;BME280;55510;49.560;19.090;2023-04-27T15:27:49;96814.91;;;9.54;45.50
68508;BME280;55510;49.560;19.090;2023-04-27T15:30:50;96815.41;;;9.63;45.34
68508;BME280;55510;49.560;19.090;2023-04-27T15:33:53;96816.31;;;9.68;44.30
68508;BME280;55510;49.560;19.090;2023-04-27T15:36:55;96813.00;;;9.73;42.42
68508;BME280;55510;49.560;19.090;2023-04-27T15:39:56;96814.22;;;9.58;40.50
68508;BME280;55510;49.560;19.090;2023-04-27T15:42:56;96821.66;;;9.38;41.28
68508;BME280;55510;49.560;19.090;2023-04-27T15:46:02;96810.03;;;9.20;41.49
68508;BME280;55510;49.560;19.090;2023-04-27T15:49:03;96821.91;;;9.18;41.73
68508;BME280;55510;49.560;19.090;2023-04-27T15:52:04;96809.31;;;9.43;43.08
68508;BME280;55510;49.560;19.090;2023-04-27T15:55:04;96813.28;;;9.53;42.29
68508;BME280;55510;49.560;19.090;2023-04-27T15:58:06;96815.81;;;9.48;41.60
68508;BME280;55510;49.560;19.090;2023-04-27T16:01:06;96802.25;;;9.37;42.75
68508;BME280;55510;49.560;19.090;2023-04-27T16:04:10;96804.34;;;9.35;42.16
68508;BME280;55510;49.560;19.090;2023-04-27T16:07:10;96806.63;;;9.32;42.00
68508;BME280;55510;49.560;19.090;2023-04-27T16:10:12;96811.59;;;9.28;44.07
68508;BME280;55510;49.560;19.090;2023-04-27T16:13:12;96802.59;;;9.29;40.50
68508;BME280;55510;49.560;19.090;2023-04-27T16:16:13;96805.25;;;9.10;42.40
68508;BME280;55510;49.560;19.090;2023-04-27T16:19:14;96814.88;;;8.93;41.81
68508;BME280;55510;49.560;19.090;2023-04-27T16:22:15;96810.97;;;8.77;41.05
68508;BME280;55510;49.560;19.090;2023-04-27T16:25:16;96807.03;;;8.61;42.36
68508;BME280;55510;49.560;19.090;2023-04-27T16:28:17;96806.91;;;8.49;43.07
68508;BME280;55510;49.560;19.090;2023-04-27T16:31:17;96820.41;;;8.47;43.57
68508;BME280;55510;49.560;19.090;2023-04-27T16:34:18;96821.41;;;8.53;42.59
68508;BME280;55510;49.560;19.090;2023-04-27T16:37:19;96820.59;;;8.52;43.40
68508;BME280;55510;49.560;19.090;2023-04-27T16:40:20;96823.03;;;8.54;43.30
68508;BME280;55510;49.560;19.090;2023-04-27T16:43:21;96823.84;;;8.54;42.64
68508;BME280;55510;49.560;19.090;2023-04-27T16:46:22;96827.44;;;8.60;43.95
68508;BME280;55510;49.560;19.090;2023-04-27T16:49:22;96821.34;;;8.60;43.81
68508;BME280;55510;49.560;19.090;2023-04-27T16:52:23;96816.25;;;8.58;43.04
68508;BME280;55510;49.560;19.090;2023-04-27T16:55:24;96828.38;;;8.47;42.84
68508;BME280;55510;49.560;19.090;2023-04-27T16:58:28;96827.00;;;8.38;42.19
68508;BME280;55510;49.560;19.090;2023-04-27T17:01:29;96830.88;;;8.17;42.64
68508;BME280;55510;49.560;19.090;2023-04-27T17:04:32;96828.50;;;8.08;44.18
68508;BME280;55510;49.560;19.090;2023-04-27T17:07:38;96829.00;;;7.98;44.77
68508;BME280;55510;49.560;19.090;2023-04-27T17:10:39;96824.97;;;7.89;44.95
68508;BME280;55510;49.560;19.090;2023-04-27T17:13:40;96826.06;;;7.81;45.60
68508;BME280;55510;49.560;19.090;2023-04-27T17:16:41;96835.06;;;7.74;46.63
68508;BME280;55510;49.560;19.090;2023-04-27T17:19:42;96830.63;;;7.67;46.05
68508;BME280;55510;49.560;19.090;2023-04-27T17:22:42;96833.09;;;7.62;46.12
68508;BME280;55510;49.560;19.090;2023-04-27T17:25:44;96836.63;;;7.56;47.29
68508;BME280;55510;49.560;19.090;2023-04-27T17:28:45;96830.16;;;7.45;46.99
68508;BME280;55510;49.560;19.090;2023-04-27T17:31:49;96835.69;;;7.37;47.85
68508;BME280;55510;49.560;19.090;2023-04-27T17:34:50;96835.13;;;7.28;49.19
68508;BME280;55510;49.560;19.090;2023-04-27T17:37:52;96832.72;;;7.20;51.49
68508;BME280;55510;49.560;19.090;2023-04-27T17:40:52;96825.63;;;7.14;52.36
68508;BME280;55510;49.560;19.090;2023-04-27T17:43:53;96827.28;;;7.01;51.84
68508;BME280;55510;49.560;19.090;2023-04-27T17:46:54;96836.28;;;6.93;51.08
68508;BME280;55510;49.560;19.090;2023-04-27T17:49:54;96842.00;;;6.77;52.48
68508;BME280;55510;49.560;19.090;2023-04-27T17:52:56;96840.66;;;6.47;56.14
68508;BME280;55510;49.560;19.090;2023-04-27T17:55:57;96839.88;;;6.27;57.13
68508;BME280;55510;49.560;19.090;2023-04-27T17:58:57;96843.13;;;6.02;56.43
68508;BME280;55510;49.560;19.090;2023-04-27T18:01:58;96845.13;;;5.86;57.46
68508;BME280;55510;49.560;19.090;2023-04-27T18:04:59;96848.13;;;5.63;58.17
68508;BME280;55510;49.560;19.090;2023-04-27T18:08:00;96848.09;;;5.49;59.77
68508;BME280;55510;49.560;19.090;2023-04-27T18:11:00;96849.28;;;5.33;60.92
68508;BME280;55510;49.560;19.090;2023-04-27T18:14:01;96860.56;;;5.14;62.35
68508;BME280;55510;49.560;19.090;2023-04-27T18:17:03;96867.25;;;5.10;62.81
68508;BME280;55510;49.560;19.090;2023-04-27T18:20:04;96864.19;;;5.06;63.36
68508;BME280;55510;49.560;19.090;2023-04-27T18:23:10;96870.88;;;5.02;63.41
68508;BME280;55510;49.560;19.090;2023-04-27T18:26:10;96880.38;;;4.96;64.58
68508;BME280;55510;49.560;19.090;2023-04-27T18:29:11;96876.88;;;4.82;65.37
68508;BME280;55510;49.560;19.090;2023-04-27T18:32:12;96882.69;;;4.77;66.51
68508;BME280;55510;49.560;19.090;2023-04-27T18:35:13;96873.31;;;4.68;66.07
68508;BME280;55510;49.560;19.090;2023-04-27T18:38:14;96874.91;;;4.62;66.18
68508;BME280;55510;49.560;19.090;2023-04-27T18:41:15;96884.94;;;4.45;67.21
68508;BME280;55510;49.560;19.090;2023-04-27T18:44:16;96885.69;;;4.39;67.11
68508;BME280;55510;49.560;19.090;2023-04-27T18:47:17;96887.28;;;4.33;66.23
68508;BME280;55510;49.560;19.090;2023-04-27T18:50:18;96892.09;;;4.23;65.51
68508;BME280;55510;49.560;19.090;2023-04-27T18:53:18;96886.06;;;4.07;66.28
68508;BME280;55510;49.560;19.090;2023-04-27T18:56:19;96888.66;;;4.01;66.45
68508;BME280;55510;49.560;19.090;2023-04-27T18:59:20;96891.00;;;3.96;66.86
68508;BME280;55510;49.560;19.090;2023-04-27T19:02:21;96902.69;;;3.86;66.87
68508;BME280;55510;49.560;19.090;2023-04-27T19:05:22;96906.81;;;3.74;67.93
68508;BME280;55510;49.560;19.090;2023-04-27T19:08:22;96902.06;;;3.62;68.88
68508;BME280;55510;49.560;19.090;2023-04-27T19:11:23;96893.00;;;3.50;68.97
68508;BME280;55510;49.560;19.090;2023-04-27T19:14:25;96884.59;;;3.40;69.69
68508;BME280;55510;49.560;19.090;2023-04-27T19:17:25;96890.97;;;3.30;70.23
68508;BME280;55510;49.560;19.090;2023-04-27T19:20:26;96892.25;;;3.19;70.19
68508;BME280;55510;49.560;19.090;2023-04-27T19:23:27;96897.50;;;3.04;71.88
68508;BME280;55510;49.560;19.090;2023-04-27T19:26:28;96900.81;;;2.92;72.77
68508;BME280;55510;49.560;19.090;2023-04-27T19:29:50;96900.69;;;2.70;75.46
68508;BME280;55510;49.560;19.090;2023-04-27T19:32:52;96899.41;;;2.51;76.45
68508;BME280;55510;49.560;19.090;2023-04-27T19:35:52;96904.59;;;2.44;75.91
68508;BME280;55510;49.560;19.090;2023-04-27T19:38:55;96908.44;;;2.33;76.28
68508;BME280;55510;49.560;19.090;2023-04-27T19:41:56;96910.97;;;2.26;76.85
68508;BME280;55510;49.560;19.090;2023-04-27T19:44:57;96905.31;;;2.14;76.87
68508;BME280;55510;49.560;19.090;2023-04-27T19:47:58;96909.28;;;2.10;77.52
68508;BME280;55510;49.560;19.090;2023-04-27T19:50:59;96915.44;;;2.02;77.47
68508;BME280;55510;49.560;19.090;2023-04-27T19:53:59;96913.47;;;1.96;77.47
68508;BME280;55510;49.560;19.090;2023-04-27T19:57:00;96915.38;;;1.87;77.46
68508;BME280;55510;49.560;19.090;2023-04-27T20:00:02;96910.34;;;1.78;78.08
68508;BME280;55510;49.560;19.090;2023-04-27T20:03:11;96918.44;;;1.68;78.81
68508;BME280;55510;49.560;19.090;2023-04-27T20:06:12;96912.78;;;1.56;79.42
68508;BME280;55510;49.560;19.090;2023-04-27T20:09:13;96914.97;;;1.44;79.52
68508;BME280;55510;49.560;19.090;2023-04-27T20:12:13;96914.38;;;1.34;80.54
68508;BME280;55510;49.560;19.090;2023-04-27T20:15:14;96923.91;;;1.26;80.58
68508;BME280;55510;49.560;19.090;2023-04-27T20:18:15;96923.94;;;1.18;80.98
68508;BME280;55510;49.560;19.090;2023-04-27T20:21:17;96927.41;;;1.10;81.81
68508;BME280;55510;49.560;19.090;2023-04-27T20:24:17;96930.38;;;1.07;81.93
68508;BME280;55510;49.560;19.090;2023-04-27T20:27:18;96926.97;;;0.98;82.44
68508;BME280;55510;49.560;19.090;2023-04-27T20:30:19;96926.81;;;0.92;82.57
68508;BME280;55510;49.560;19.090;2023-04-27T20:33:20;96940.75;;;0.84;83.35
68508;BME280;55510;49.560;19.090;2023-04-27T20:36:20;96934.56;;;0.77;83.44
68508;BME280;55510;49.560;19.090;2023-04-27T20:39:22;96931.97;;;0.68;82.84
68508;BME280;55510;49.560;19.090;2023-04-27T20:42:23;96930.47;;;0.66;82.96
68508;BME280;55510;49.560;19.090;2023-04-27T20:45:24;96943.09;;;0.62;82.61
68508;BME280;55510;49.560;19.090;2023-04-27T20:48:25;96942.13;;;0.55;83.30
68508;BME280;55510;49.560;19.090;2023-04-27T20:51:28;96941.50;;;0.45;83.38
68508;BME280;55510;49.560;19.090;2023-04-27T20:54:28;96944.44;;;0.41;84.39
68508;BME280;55510;49.560;19.090;2023-04-27T20:57:32;96937.75;;;0.39;84.81
68508;BME280;55510;49.560;19.090;2023-04-27T21:00:33;96935.94;;;0.31;86.58
68508;BME280;55510;49.560;19.090;2023-04-27T21:03:33;96942.34;;;0.28;85.95
68508;BME280;55510;49.560;19.090;2023-04-27T21:06:34;96950.81;;;0.14;86.60
68508;BME280;55510;49.560;19.090;2023-04-27T21:09:36;96948.06;;;0.07;86.93
68508;BME280;55510;49.560;19.090;2023-04-27T21:12:38;96952.28;;;-0.08;88.17
68508;BME280;55510;49.560;19.090;2023-04-27T21:15:38;96953.91;;;-0.07;87.93
68508;BME280;55510;49.560;19.090;2023-04-27T21:18:39;96950.97;;;-0.12;86.98
68508;BME280;55510;49.560;19.090;2023-04-27T21:21:40;96958.81;;;-0.21;86.88
68508;BME280;55510;49.560;19.090;2023-04-27T21:24:40;96959.91;;;-0.32;87.45
68508;BME280;55510;49.560;19.090;2023-04-27T21:27:41;96958.28;;;-0.41;87.27
68508;BME280;55510;49.560;19.090;2023-04-27T21:30:42;96961.66;;;-0.49;87.66
68508;BME280;55510;49.560;19.090;2023-04-27T21:33:43;96957.41;;;-0.58;88.69
68508;BME280;55510;49.560;19.090;2023-04-27T21:36:43;96956.09;;;-0.62;88.51
68508;BME280;55510;49.560;19.090;2023-04-27T21:39:44;96963.59;;;-0.67;89.26
68508;BME280;55510;49.560;19.090;2023-04-27T21:42:45;96957.69;;;-0.69;89.28
68508;BME280;55510;49.560;19.090;2023-04-27T21:45:46;96963.06;;;-0.71;90.06
68508;BME280;55510;49.560;19.090;2023-04-27T21:48:47;96960.63;;;-0.73;90.24
68508;BME280;55510;49.560;19.090;2023-04-27T21:51:48;96965.03;;;-0.73;90.02
68508;BME280;55510;49.560;19.090;2023-04-27T21:54:48;96965.50;;;-0.78;90.22
68508;BME280;55510;49.560;19.090;2023-04-27T21:57:49;96961.56;;;-0.82;90.43
68508;BME280;55510;49.560;19.090;2023-04-27T22:00:50;96962.69;;;-0.84;90.90
68508;BME280;55510;49.560;19.090;2023-04-27T22:03:51;96970.72;;;-0.86;90.60
68508;BME280;55510;49.560;19.090;2023-04-27T22:06:52;96971.97;;;-0.90;91.42
68508;BME280;55510;49.560;19.090;2023-04-27T22:09:52;96976.53;;;-0.92;90.97
68508;BME280;55510;49.560;19.090;2023-04-27T22:12:53;96976.84;;;-0.95;91.02
68508;BME280;55510;49.560;19.090;2023-04-27T22:15:54;96978.78;;;-0.97;91.67
68508;BME280;55510;49.560;19.090;2023-04-27T22:18:55;96976.50;;;-1.00;91.46
68508;BME280;55510;49.560;19.090;2023-04-27T22:21:56;96975.84;;;-1.03;91.14
68508;BME280;55510;49.560;19.090;2023-04-27T22:24:57;96970.13;;;-1.06;91.49
68508;BME280;55510;49.560;19.090;2023-04-27T22:27:58;96974.00;;;-1.10;91.99
68508;BME280;55510;49.560;19.090;2023-04-27T22:30:59;96974.47;;;-1.15;91.88
68508;BME280;55510;49.560;19.090;2023-04-27T22:34:01;96965.31;;;-1.19;91.51
68508;BME280;55510;49.560;19.090;2023-04-27T22:37:02;96965.94;;;-1.25;92.10
68508;BME280;55510;49.560;19.090;2023-04-27T22:40:03;96963.78;;;-1.30;92.13
68508;BME280;55510;49.560;19.090;2023-04-27T22:43:05;96969.44;;;-1.35;92.71
68508;BME280;55510;49.560;19.090;2023-04-27T22:46:05;96970.59;;;-1.37;92.99
68508;BME280;55510;49.560;19.090;2023-04-27T22:49:06;96970.06;;;-1.41;92.97
68508;BME280;55510;49.560;19.090;2023-04-27T22:52:07;96959.91;;;-1.44;93.42
68508;BME280;55510;49.560;19.090;2023-04-27T22:55:09;96973.28;;;-1.47;94.17
68508;BME280;55510;49.560;19.090;2023-04-27T22:58:10;96966.41;;;-1.48;93.86
68508;BME280;55510;49.560;19.090;2023-04-27T23:01:11;96971.16;;;-1.52;94.44
68508;BME280;55510;49.560;19.090;2023-04-27T23:04:12;96976.50;;;-1.53;93.93
68508;BME280;55510;49.560;19.090;2023-04-27T23:07:13;96972.56;;;-1.57;94.19
68508;BME280;55510;49.560;19.090;2023-04-27T23:10:17;96970.94;;;-1.58;94.69
68508;BME280;55510;49.560;19.090;2023-04-27T23:13:18;96969.28;;;-1.59;94.80
68508;BME280;55510;49.560;19.090;2023-04-27T23:16:22;96981.66;;;-1.62;95.11
68508;BME280;55510;49.560;19.090;2023-04-27T23:19:22;96971.22;;;-1.62;95.19
68508;BME280;55510;49.560;19.090;2023-04-27T23:22:23;96969.06;;;-1.66;95.06
68508;BME280;55510;49.560;19.090;2023-04-27T23:25:24;96968.56;;;-1.70;95.14
68508;BME280;55510;49.560;19.090;2023-04-27T23:28:25;96974.59;;;-1.69;94.86
68508;BME280;55510;49.560;19.090;2023-04-27T23:31:25;96971.47;;;-1.73;95.47
68508;BME280;55510;49.560;19.090;2023-04-27T23:34:26;96964.22;;;-1.79;95.88
68508;BME280;55510;49.560;19.090;2023-04-27T23:37:26;96968.09;;;-1.83;95.47
68508;BME280;55510;49.560;19.090;2023-04-27T23:40:31;96959.63;;;-1.85;95.33
68508;BME280;55510;49.560;19.090;2023-04-27T23:43:32;96964.84;;;-1.85;95.94
68508;BME280;55510;49.560;19.090;2023-04-27T23:46:33;96965.13;;;-1.88;95.86
68508;BME280;55510;49.560;19.090;2023-04-27T23:49:34;96966.72;;;-1.96;95.42
68508;BME280;55510;49.560;19.090;2023-04-27T23:52:35;96958.34;;;-1.99;96.04
68508;BME280;55510;49.560;19.090;2023-04-27T23:55:36;96959.50;;;-2.02;95.47
68508;BME280;55510;49.560;19.090;2023-04-27T23:58:37;96955.38;;;-2.05;96.28
